Time;durP1;ratioP1;P1;durP2;ratioP2;P2;SDS_P1;SDS_P2;PMS_P1;PMS_P2;Temp;Humidity;BMP_temperature;BMP_pressure;BME280_temperature;BME280_humidity;BME280_pressure;Samples;Min_cycle;Max_cycle;Signal;HPM_P1;HPM_P2
2022/07/15 00:01:11;;;;;;;1.60;0.65;;;22.90;55.90;;;;;;5024991;28;20025;-66
2022/07/15 00:03:36;;;;;;;0.80;0.75;;;22.90;56.00;;;;;;5024536;28;20030;-66
2022/07/15 00:06:02;;;;;;;1.05;0.57;;;22.90;55.80;;;;;;5024797;28;20029;-66
2022/07/15 00:08:28;;;;;;;2.03;0.80;;;22.90;55.70;;;;;;5028216;28;20172;-65
2022/07/15 00:10:54;;;;;;;1.95;0.57;;;22.90;55.80;;;;;;5028742;28;20064;-66
2022/07/15 00:13:19;;;;;;;2.97;0.60;;;22.90;55.80;;;;;;5010554;28;20118;-66
2022/07/15 00:15:44;;;;;;;2.58;0.80;;;22.90;55.80;;;;;;5028293;28;20297;-66
2022/07/15 00:18:11;;;;;;;3.13;0.70;;;22.90;55.70;;;;;;5028084;28;20030;-66
2022/07/15 00:20:37;;;;;;;1.10;0.63;;;22.80;55.50;;;;;;5028016;28;20508;-67
2022/07/15 00:23:06;;;;;;;1.60;0.75;;;22.80;55.60;;;;;;5027845;28;20072;-65
2022/07/15 00:25:31;;;;;;;0.82;0.60;;;22.80;56.30;;;;;;5028182;28;20457;-65
2022/07/15 00:27:58;;;;;;;2.63;1.00;;;22.80;55.50;;;;;;5028458;28;20060;-66
2022/07/15 00:30:24;;;;;;;2.22;0.85;;;22.80;55.50;;;;;;5028021;28;20029;-66
2022/07/15 00:32:50;;;;;;;1.15;0.50;;;22.80;55.60;;;;;;5026184;28;20021;-66
2022/07/15 00:35:16;;;;;;;1.10;0.60;;;22.80;55.40;;;;;;5026443;28;20468;-66
2022/07/15 00:37:41;;;;;;;1.73;0.60;;;22.80;55.50;;;;;;5027939;28;20032;-66
2022/07/15 00:40:07;;;;;;;1.20;0.73;;;22.80;55.40;;;;;;5027458;28;20029;-66
2022/07/15 00:42:45;;;;;;;1.58;0.70;;;22.80;55.30;;;;;;5027771;28;20425;-66
2022/07/15 00:45:18;;;;;;;1.65;0.82;;;22.80;56.00;;;;;;5027469;28;20037;-66
2022/07/15 00:47:55;;;;;;;1.02;0.70;;;22.80;55.30;;;;;;5027948;28;20029;-66
2022/07/15 00:50:22;;;;;;;0.63;0.47;;;22.80;55.10;;;;;;5027518;28;20401;-66
2022/07/15 00:53:18;;;;;;;1.92;0.52;;;22.80;55.20;;;;;;5027676;28;20033;-66
2022/07/15 00:55:44;;;;;;;1.15;0.63;;;22.80;55.00;;;;;;5025937;28;20026;-66
2022/07/15 00:58:13;;;;;;;1.80;0.63;;;22.80;55.20;;;;;;5027651;28;20559;-66
2022/07/15 01:00:39;;;;;;;1.98;0.65;;;22.80;55.10;;;;;;5027709;28;20037;-65
2022/07/15 01:03:04;;;;;;;1.67;0.70;;;22.80;55.10;;;;;;5026815;28;20041;-66
2022/07/15 01:05:30;;;;;;;1.98;0.80;;;22.70;55.00;;;;;;5026905;28;20029;-66
2022/07/15 01:07:56;;;;;;;1.83;0.60;;;22.80;55.10;;;;;;5027679;28;20476;-65
2022/07/15 01:10:22;;;;;;;1.55;0.73;;;22.80;55.10;;;;;;5027477;28;20028;-66
2022/07/15 01:12:48;;;;;;;1.00;0.47;;;22.70;54.90;;;;;;5007210;28;20030;-66
2022/07/15 01:15:14;;;;;;;2.28;0.60;;;22.70;54.80;;;;;;5007613;28;20022;-66
2022/07/15 01:17:40;;;;;;;1.90;0.60;;;22.70;54.80;;;;;;5012230;28;20048;-66
2022/07/15 01:20:07;;;;;;;1.52;0.70;;;22.70;54.70;;;;;;5024877;28;20253;-66
2022/07/15 01:22:32;;;;;;;1.20;0.70;;;22.70;54.90;;;;;;5026555;28;20105;-65
2022/07/15 01:24:58;;;;;;;1.95;0.57;;;22.70;54.90;;;;;;5027535;28;20128;-67
2022/07/15 01:27:24;;;;;;;1.45;0.60;;;22.70;54.80;;;;;;5027285;28;20026;-66
2022/07/15 01:29:50;;;;;;;3.38;0.70;;;22.70;54.60;;;;;;5026444;28;20060;-66
2022/07/15 01:32:16;;;;;;;1.55;0.50;;;22.70;54.60;;;;;;5025561;28;20041;-66
2022/07/15 01:34:41;;;;;;;1.35;0.63;;;22.70;54.70;;;;;;5026008;28;20040;-65
2022/07/15 01:37:07;;;;;;;2.05;0.50;;;22.70;54.60;;;;;;5026817;28;20026;-66
2022/07/15 01:39:32;;;;;;;3.40;0.75;;;22.60;54.70;;;;;;5025991;28;20025;-66
2022/07/15 01:41:58;;;;;;;3.25;0.60;;;22.60;54.60;;;;;;5027140;28;20083;-66
2022/07/15 01:44:23;;;;;;;1.40;0.55;;;22.70;54.40;;;;;;5025681;28;20566;-66
2022/07/15 01:46:49;;;;;;;2.03;0.73;;;22.60;54.40;;;;;;5026497;28;20045;-66
2022/07/15 01:49:29;;;;;;;3.72;0.60;;;22.60;54.50;;;;;;5025924;28;20021;-66
2022/07/15 01:51:56;;;;;;;1.33;0.60;;;22.60;54.50;;;;;;5026624;28;20030;-65
2022/07/15 01:54:22;;;;;;;2.65;0.65;;;22.60;54.40;;;;;;5026475;28;20101;-65
2022/07/15 01:56:49;;;;;;;1.27;0.52;;;22.60;54.30;;;;;;5026760;28;20034;-66
2022/07/15 01:59:14;;;;;;;0.85;0.60;;;22.60;54.40;;;;;;5025889;28;20026;-66
2022/07/15 02:01:40;;;;;;;2.15;0.70;;;22.60;54.20;;;;;;5026209;28;20032;-66
2022/07/15 02:04:05;;;;;;;0.75;0.40;;;22.60;54.30;;;;;;5026494;28;20033;-66
2022/07/15 02:06:31;;;;;;;1.00;0.65;;;22.60;54.10;;;;;;5026594;28;20494;-66
2022/07/15 02:08:56;;;;;;;0.95;0.60;;;22.60;54.30;;;;;;5026283;28;20032;-66
2022/07/15 02:11:22;;;;;;;1.38;0.60;;;22.60;54.40;;;;;;5026243;28;20025;-66
2022/07/15 02:13:47;;;;;;;1.58;0.60;;;22.50;54.10;;;;;;5026443;28;20033;-66
2022/07/15 02:16:13;;;;;;;0.73;0.52;;;22.60;54.10;;;;;;5026452;28;20044;-66
2022/07/15 02:18:38;;;;;;;2.00;0.57;;;22.60;54.20;;;;;;5024613;28;20562;-66
2022/07/15 02:21:04;;;;;;;2.63;0.50;;;22.60;54.40;;;;;;5025759;28;20033;-66
2022/07/15 02:23:29;;;;;;;2.08;0.65;;;22.50;54.30;;;;;;5026005;28;20056;-65
2022/07/15 02:25:55;;;;;;;3.17;0.85;;;22.50;54.20;;;;;;5026699;28;20025;-66
2022/07/15 02:28:20;;;;;;;0.82;0.40;;;22.50;54.10;;;;;;5025609;28;20036;-66
2022/07/15 02:30:46;;;;;;;1.35;0.63;;;22.50;53.90;;;;;;5025513;28;20021;-65
2022/07/15 02:33:13;;;;;;;4.95;0.70;;;22.50;53.90;;;;;;5024277;28;20025;-66
2022/07/15 02:35:39;;;;;;;2.42;0.70;;;22.50;54.00;;;;;;5025893;28;20036;-65
2022/07/15 02:38:04;;;;;;;1.08;0.57;;;22.50;53.90;;;;;;5025565;28;20100;-66
2022/07/15 02:40:30;;;;;;;2.33;0.52;;;22.50;54.00;;;;;;5025299;28;20077;-67
2022/07/15 02:42:57;;;;;;;0.88;0.70;;;22.50;53.60;;;;;;5024575;28;20134;-66
2022/07/15 02:45:23;;;;;;;0.90;0.40;;;22.50;53.60;;;;;;5025670;28;20449;-66
2022/07/15 02:47:49;;;;;;;1.15;0.50;;;22.40;53.70;;;;;;5025074;28;20346;-66
2022/07/15 02:50:15;;;;;;;3.03;0.50;;;22.50;54.00;;;;;;5024999;28;20113;-66
2022/07/15 02:52:41;;;;;;;1.63;0.70;;;22.50;53.60;;;;;;5024336;28;20032;-66
2022/07/15 02:55:07;;;;;;;2.45;0.40;;;22.50;53.90;;;;;;5024212;28;20393;-66
2022/07/15 02:57:32;;;;;;;4.93;1.13;;;22.50;54.00;;;;;;5025329;28;20021;-65
2022/07/15 02:59:58;;;;;;;1.30;0.50;;;22.40;53.80;;;;;;5025272;28;20088;-65
2022/07/15 03:02:24;;;;;;;2.85;0.80;;;22.40;54.00;;;;;;5025569;28;20028;-66
2022/07/15 03:04:49;;;;;;;0.50;0.50;;;22.40;53.70;;;;;;5025290;28;20041;-66
2022/07/15 03:07:15;;;;;;;1.10;0.47;;;22.40;53.70;;;;;;5025726;28;20117;-66
2022/07/15 03:09:40;;;;;;;1.17;0.45;;;22.40;53.80;;;;;;5024755;28;20056;-66
2022/07/15 03:12:06;;;;;;;1.20;0.50;;;22.40;53.80;;;;;;5025254;28;20572;-66
2022/07/15 03:14:31;;;;;;;3.50;0.90;;;22.40;54.00;;;;;;5025228;28;20053;-65
2022/07/15 03:16:58;;;;;;;3.10;0.57;;;22.40;54.10;;;;;;5026031;28;20034;-66
2022/07/15 03:19:23;;;;;;;1.63;0.55;;;22.40;53.90;;;;;;5024646;28;20045;-66
2022/07/15 03:21:49;;;;;;;1.73;0.40;;;22.40;53.60;;;;;;5025311;28;20040;-66
2022/07/15 03:24:14;;;;;;;1.90;0.43;;;22.40;53.90;;;;;;5024137;28;20604;-66
2022/07/15 03:26:40;;;;;;;1.40;0.95;;;22.40;53.60;;;;;;5024596;28;20075;-66
2022/07/15 03:29:06;;;;;;;2.25;0.57;;;22.40;53.80;;;;;;5024842;28;20075;-66
2022/07/15 03:31:31;;;;;;;1.42;0.55;;;22.30;53.80;;;;;;5025112;28;20029;-65
2022/07/15 03:33:57;;;;;;;3.35;1.08;;;22.40;53.60;;;;;;5025010;28;20441;-66
2022/07/15 03:36:23;;;;;;;0.70;0.40;;;22.30;53.70;;;;;;5025442;28;20493;-66
2022/07/15 03:38:51;;;;;;;1.38;0.60;;;22.30;53.80;;;;;;5025870;28;20036;-66
2022/07/15 03:41:20;;;;;;;1.05;0.40;;;22.30;53.80;;;;;;5008235;28;20033;-66
2022/07/15 03:43:45;;;;;;;2.05;0.60;;;22.30;53.80;;;;;;5028764;28;20566;-66
2022/07/15 03:46:11;;;;;;;1.90;0.50;;;22.30;53.90;;;;;;5028942;28;20057;-66
2022/07/15 03:48:37;;;;;;;1.00;0.50;;;22.30;54.00;;;;;;5028578;28;20107;-66
2022/07/15 03:51:02;;;;;;;2.03;0.60;;;22.30;53.70;;;;;;5028868;28;20037;-65
2022/07/15 03:53:28;;;;;;;0.65;0.50;;;22.30;53.70;;;;;;5029417;28;20033;-66
2022/07/15 03:55:53;;;;;;;0.90;0.50;;;22.30;53.80;;;;;;5027830;28;20666;-66
2022/07/15 03:58:19;;;;;;;2.45;0.68;;;22.30;53.80;;;;;;5018139;28;20092;-66
2022/07/15 04:00:44;;;;;;;1.45;0.85;;;22.30;53.70;;;;;;5028218;28;20053;-66
2022/07/15 04:03:10;;;;;;;1.45;0.70;;;22.30;54.10;;;;;;5028913;28;20498;-65
2022/07/15 04:05:35;;;;;;;1.42;0.60;;;22.30;53.90;;;;;;5029284;28;20033;-66
2022/07/15 04:08:01;;;;;;;0.80;0.70;;;22.30;54.00;;;;;;5029289;28;20167;-66
2022/07/15 04:10:26;;;;;;;2.33;0.75;;;22.30;54.00;;;;;;5028564;28;20037;-66
2022/07/15 04:12:52;;;;;;;1.58;0.70;;;22.30;54.00;;;;;;5028913;28;20449;-66
2022/07/15 04:15:17;;;;;;;2.20;0.90;;;22.30;53.90;;;;;;5028378;28;20575;-66
2022/07/15 04:17:43;;;;;;;1.80;1.00;;;22.30;54.10;;;;;;5027565;28;20031;-65
2022/07/15 04:33:36;;;;;;;6.68;1.15;;;22.10;51.90;;;;;;5015786;28;20549;-66
2022/07/15 04:36:01;;;;;;;5.63;1.15;;;22.10;51.80;;;;;;5010294;28;20033;-66
2022/07/15 04:38:27;;;;;;;14.05;1.63;;;22.10;51.70;;;;;;5027006;28;20033;-66
2022/07/15 04:40:53;;;;;;;5.93;1.33;;;22.10;51.70;;;;;;5027502;28;20045;-65
2022/07/15 04:43:19;;;;;;;14.68;1.58;;;22.10;51.80;;;;;;5026722;28;20026;-65
2022/07/15 04:45:44;;;;;;;7.47;1.58;;;22.10;51.90;;;;;;5027041;28;20026;-66
2022/07/15 04:50:54;;;;;;;7.47;2.00;;;22.10;51.80;;;;;;5027058;28;20093;-66
2022/07/15 04:53:20;;;;;;;9.25;1.63;;;22.00;51.70;;;;;;5028452;28;20045;-65
2022/07/15 04:55:46;;;;;;;23.67;3.25;;;22.00;51.60;;;;;;5027767;28;20030;-65
2022/07/15 04:58:14;;;;;;;33.03;3.97;;;22.00;51.60;;;;;;5027642;28;20105;-65
2022/07/15 05:00:40;;;;;;;29.95;3.10;;;22.00;51.70;;;;;;5026995;28;20048;-65
2022/07/15 05:03:06;;;;;;;43.72;3.97;;;22.00;51.80;;;;;;5026357;28;20030;-65
2022/07/15 05:05:32;;;;;;;26.77;3.42;;;22.00;51.80;;;;;;5025335;28;20033;-65
2022/07/15 05:07:58;;;;;;;24.25;2.92;;;21.90;51.90;;;;;;5026157;28;20017;-65
2022/07/15 05:10:23;;;;;;;21.08;2.45;;;22.00;52.00;;;;;;5026778;28;20645;-65
2022/07/15 05:12:49;;;;;;;29.15;2.55;;;22.00;52.10;;;;;;5026984;28;20505;-65
2022/07/15 05:15:14;;;;;;;23.13;2.72;;;22.00;52.00;;;;;;5026957;28;20029;-65
2022/07/15 05:17:40;;;;;;;13.57;1.88;;;21.90;52.00;;;;;;5027420;28;20033;-65
2022/07/15 05:20:06;;;;;;;12.02;1.85;;;21.90;52.00;;;;;;5026464;28;20112;-66
2022/07/15 05:22:32;;;;;;;11.15;2.00;;;21.90;52.10;;;;;;5027203;28;20077;-66
2022/07/15 05:24:57;;;;;;;18.23;2.30;;;22.00;52.40;;;;;;5026944;28;20091;-66
2022/07/15 05:27:23;;;;;;;9.73;1.70;;;22.00;52.80;;;;;;5027716;28;20493;-67
2022/07/15 05:29:48;;;;;;;10.73;1.67;;;21.90;52.80;;;;;;5025843;28;20021;-66
2022/07/15 05:32:14;;;;;;;11.80;1.88;;;22.00;53.00;;;;;;5027008;28;20164;-65
2022/07/15 05:34:39;;;;;;;9.63;2.67;;;21.80;53.20;;;;;;5026890;28;20506;-62
2022/07/15 05:37:05;;;;;;;7.95;1.60;;;21.90;53.60;;;;;;5027393;28;20032;-63
2022/07/15 05:39:30;;;;;;;7.18;1.60;;;21.90;53.30;;;;;;5026843;28;20029;-66
2022/07/15 05:41:57;;;;;;;8.55;1.58;;;22.00;53.40;;;;;;5026576;28;20041;-65
2022/07/15 05:44:22;;;;;;;6.28;1.58;;;22.00;53.50;;;;;;5027312;28;20555;-66
2022/07/15 05:46:47;;;;;;;8.45;1.65;;;22.00;53.20;;;;;;5026577;28;20084;-66
2022/07/15 05:49:13;;;;;;;8.23;1.30;;;21.90;53.70;;;;;;5026267;28;20040;-62
2022/07/15 05:51:38;;;;;;;8.13;1.45;;;22.00;53.80;;;;;;5025800;28;20099;-65
2022/07/15 05:54:04;;;;;;;4.82;1.33;;;22.00;54.30;;;;;;5026616;28;20033;-65
2022/07/15 05:56:29;;;;;;;5.28;1.10;;;21.80;54.30;;;;;;5026356;28;20022;-67
2022/07/15 05:58:55;;;;;;;5.10;1.30;;;21.80;54.50;;;;;;5025532;28;20036;-66
2022/07/15 06:04:42;;;;;;;12.05;2.80;;;21.90;54.70;;;;;;5024656;28;20067;-66
2022/07/15 06:07:08;;;;;;;10.07;1.60;;;21.90;56.10;;;;;;5025969;28;20397;-66
2022/07/15 06:09:33;;;;;;;7.30;1.40;;;21.90;56.30;;;;;;5007788;28;20029;-66
2022/07/15 06:11:59;;;;;;;7.43;1.58;;;21.90;56.10;;;;;;5026314;28;20033;-66
2022/07/15 06:14:24;;;;;;;11.20;1.50;;;21.90;55.70;;;;;;5026640;28;20391;-67
2022/07/15 06:16:50;;;;;;;9.27;1.30;;;22.00;55.40;;;;;;5025567;28;20403;-66
2022/07/15 06:19:15;;;;;;;5.22;1.30;;;22.00;55.40;;;;;;5025528;28;20108;-67
2022/07/15 06:21:41;;;;;;;7.65;1.80;;;21.80;53.60;;;;;;5025676;28;20037;-67
2022/07/15 06:24:06;;;;;;;8.80;1.73;;;21.80;55.60;;;;;;5025624;28;20387;-66
2022/07/15 06:26:32;;;;;;;6.70;1.52;;;21.90;55.60;;;;;;5024362;28;20549;-66
2022/07/15 06:28:57;;;;;;;15.90;1.58;;;21.90;55.70;;;;;;5008533;28;20025;-66
2022/07/15 06:31:23;;;;;;;12.10;1.85;;;21.90;55.80;;;;;;5007757;28;20029;-67
2022/07/15 06:33:48;;;;;;;13.90;1.80;;;21.90;55.30;;;;;;5026029;28;20052;-66
2022/07/15 06:36:13;;;;;;;13.30;1.88;;;21.90;55.10;;;;;;5025653;28;20053;-66
2022/07/15 06:38:39;;;;;;;20.25;1.80;;;21.80;54.70;;;;;;5025716;28;20030;-66
2022/07/15 06:41:05;;;;;;;15.27;2.08;;;21.90;54.80;;;;;;5025074;28;20137;-67
2022/07/15 06:43:30;;;;;;;13.98;1.80;;;21.90;54.70;;;;;;5025501;28;20835;-68
2022/07/15 06:45:56;;;;;;;9.70;1.90;;;21.90;54.50;;;;;;5024802;28;20562;-67
2022/07/15 06:48:21;;;;;;;9.20;1.58;;;21.90;54.60;;;;;;5024158;28;20159;-67
2022/07/15 06:50:47;;;;;;;17.00;2.42;;;21.90;54.50;;;;;;5025221;28;20026;-67
2022/07/15 06:53:12;;;;;;;12.13;1.73;;;21.90;54.90;;;;;;5025449;28;20518;-67
2022/07/15 06:55:38;;;;;;;15.65;2.08;;;21.80;54.30;;;;;;5025443;28;20032;-67
2022/07/15 06:58:03;;;;;;;13.40;2.38;;;21.90;54.60;;;;;;5024062;28;20037;-67
2022/07/15 07:00:29;;;;;;;8.30;1.50;;;21.90;54.50;;;;;;5024902;28;20549;-67
2022/07/15 07:02:54;;;;;;;5.07;1.27;;;21.90;54.30;;;;;;5025566;28;20109;-66
2022/07/15 07:05:20;;;;;;;5.43;1.92;;;21.80;54.20;;;;;;5024309;28;20033;-68
2022/07/15 07:07:45;;;;;;;5.07;1.23;;;21.80;53.20;;;;;;5025637;28;20033;-68
2022/07/15 07:10:11;;;;;;;9.38;2.15;;;21.80;54.20;;;;;;5024688;28;20294;-69
2022/07/15 07:12:36;;;;;;;6.22;1.30;;;21.80;53.80;;;;;;5025432;28;20109;-68
2022/07/15 07:15:02;;;;;;;5.07;1.27;;;21.80;53.80;;;;;;5025380;28;20522;-68
2022/07/15 07:17:28;;;;;;;2.92;1.20;;;21.70;53.80;;;;;;5028359;28;20730;-67
2022/07/15 07:19:55;;;;;;;7.35;1.38;;;21.80;53.50;;;;;;5027718;28;21379;-68
2022/07/15 07:22:21;;;;;;;3.00;1.67;;;21.80;53.50;;;;;;5027725;28;20406;-67
2022/07/15 07:24:46;;;;;;;13.98;2.20;;;21.80;53.20;;;;;;5029271;28;20030;-68
2022/07/15 07:27:12;;;;;;;8.23;1.52;;;21.80;53.30;;;;;;5029082;28;20048;-67
2022/07/15 07:29:37;;;;;;;11.52;1.63;;;21.80;53.20;;;;;;5028791;28;20084;-68
2022/07/15 07:32:03;;;;;;;8.55;1.98;;;21.80;53.20;;;;;;5028907;28;20029;-68
2022/07/15 07:34:29;;;;;;;18.55;2.22;;;21.80;53.00;;;;;;5028297;28;20566;-64
2022/07/15 07:36:54;;;;;;;6.97;1.30;;;21.80;52.90;;;;;;5029215;28;20326;-67
2022/07/15 07:39:20;;;;;;;9.75;2.13;;;21.60;53.10;;;;;;5028568;28;20501;-67
2022/07/15 07:41:45;;;;;;;10.23;1.75;;;21.70;53.30;;;;;;5028449;28;20512;-68
2022/07/15 07:44:11;;;;;;;14.65;2.50;;;21.70;53.80;;;;;;5028515;28;20029;-67
2022/07/15 07:46:36;;;;;;;11.98;2.10;;;21.70;53.40;;;;;;5028337;28;20084;-67
2022/07/15 07:49:02;;;;;;;8.10;1.38;;;21.70;52.60;;;;;;5028476;28;20049;-67
2022/07/15 07:51:28;;;;;;;11.07;1.48;;;21.60;53.40;;;;;;5028880;28;20502;-67
2022/07/15 07:53:53;;;;;;;7.25;1.30;;;21.60;53.50;;;;;;5027849;28;20025;-67
2022/07/15 07:56:19;;;;;;;3.40;1.15;;;21.70;53.50;;;;;;5028817;28;20095;-67
2022/07/15 07:58:45;;;;;;;4.28;1.30;;;21.60;52.50;;;;;;5028148;28;20037;-67
2022/07/15 08:01:10;;;;;;;5.35;1.25;;;21.60;53.50;;;;;;5028616;28;20033;-67
2022/07/15 08:03:36;;;;;;;5.68;1.70;;;21.60;52.50;;;;;;5028548;28;20038;-68
2022/07/15 08:06:01;;;;;;;6.75;1.55;;;21.70;53.40;;;;;;5028807;28;20609;-67
2022/07/15 08:08:27;;;;;;;5.63;2.03;;;21.70;53.40;;;;;;5028602;28;20044;-67
2022/07/15 08:10:54;;;;;;;6.15;1.40;;;21.70;53.20;;;;;;5028600;28;20022;-67
2022/07/15 08:13:21;;;;;;;5.07;1.30;;;21.70;52.40;;;;;;5029035;28;20524;-67
2022/07/15 08:15:47;;;;;;;3.75;1.10;;;21.60;53.00;;;;;;5028541;28;20465;-66
2022/07/15 08:18:12;;;;;;;3.92;1.15;;;21.60;53.40;;;;;;5028496;28;20113;-66
2022/07/15 08:20:38;;;;;;;9.68;2.03;;;21.60;53.30;;;;;;5028331;28;20507;-66
2022/07/15 08:23:04;;;;;;;12.00;1.70;;;21.60;53.90;;;;;;5027958;28;20041;-66
2022/07/15 08:25:31;;;;;;;8.90;1.70;;;21.70;54.00;;;;;;5027421;28;20109;-66
2022/07/15 08:27:58;;;;;;;6.28;1.13;;;21.70;53.60;;;;;;5027461;28;20692;-66
2022/07/15 08:30:24;;;;;;;7.57;2.03;;;21.70;53.50;;;;;;5026528;28;20021;-66
2022/07/15 08:32:49;;;;;;;10.30;1.80;;;21.70;53.50;;;;;;5027339;28;20032;-66
2022/07/15 08:35:59;;;;;;;12.80;1.85;;;21.70;53.30;;;;;;5027925;28;20022;-64
2022/07/15 08:38:24;;;;;;;9.38;1.63;;;21.70;53.60;;;;;;5001677;28;20053;-66
2022/07/15 08:40:50;;;;;;;5.55;1.40;;;21.60;53.90;;;;;;5028055;28;20498;-67
2022/07/15 08:43:15;;;;;;;7.72;1.40;;;21.70;54.20;;;;;;5022624;28;20124;-67
2022/07/15 08:45:43;;;;;;;8.40;1.40;;;21.70;54.00;;;;;;5028915;28;20026;-65
2022/07/15 08:48:09;;;;;;;5.38;1.77;;;21.70;54.40;;;;;;5028346;28;20025;-65
2022/07/15 08:50:34;;;;;;;3.60;1.40;;;21.60;53.30;;;;;;5027908;28;20040;-66
2022/07/15 08:53:00;;;;;;;7.05;1.30;;;21.40;53.20;;;;;;5029155;28;20025;-66
2022/07/15 08:55:26;;;;;;;6.15;1.10;;;21.40;52.10;;;;;;5028102;28;20025;-65
2022/07/15 08:57:52;;;;;;;5.38;1.52;;;21.40;53.90;;;;;;5027981;28;20029;-65
2022/07/15 09:00:18;;;;;;;6.68;1.65;;;21.50;53.90;;;;;;5027993;28;20403;-66
2022/07/15 09:02:44;;;;;;;5.47;1.60;;;21.50;53.60;;;;;;5026117;28;20025;-66
2022/07/15 09:05:18;;;;;;;9.10;1.27;;;21.60;53.00;;;;;;5027453;28;20034;-66
2022/07/15 09:08:16;;;;;;;7.43;1.25;;;21.60;53.30;;;;;;5027372;28;20033;-65
2022/07/15 09:10:48;;;;;;;5.28;1.15;;;21.60;53.10;;;;;;4982440;28;20113;-66
2022/07/15 09:13:33;;;;;;;2.78;0.80;;;21.50;52.30;;;;;;5027138;28;20469;-65
2022/07/15 09:16:08;;;;;;;6.55;1.30;;;21.50;50.60;;;;;;4996764;28;20258;-66
2022/07/15 09:18:36;;;;;;;5.80;1.50;;;21.40;53.00;;;;;;5006864;28;20037;-66
2022/07/15 09:21:02;;;;;;;5.80;1.17;;;21.50;52.90;;;;;;5027792;28;20038;-64
2022/07/15 09:23:31;;;;;;;4.50;1.25;;;21.50;52.90;;;;;;5027256;28;20138;-65
2022/07/15 09:25:59;;;;;;;6.28;1.08;;;21.10;53.50;;;;;;5009680;28;20440;-66
2022/07/15 09:28:40;;;;;;;9.60;1.23;;;21.30;53.10;;;;;;5027005;28;20041;-65
2022/07/15 09:33:51;;;;;;;3.30;1.02;;;21.50;52.70;;;;;;5008021;28;20040;-67
2022/07/15 09:36:18;;;;;;;5.75;1.40;;;21.50;52.80;;;;;;5026941;28;20037;-66
2022/07/15 09:39:01;;;;;;;3.25;1.23;;;21.50;52.80;;;;;;5026295;28;20116;-65
2022/07/15 09:41:40;;;;;;;4.70;1.23;;;21.30;53.10;;;;;;5005999;28;20030;-65
2022/07/15 09:44:13;;;;;;;9.30;1.50;;;21.40;52.80;;;;;;5008755;28;20053;-66
2022/07/15 09:46:46;;;;;;;7.55;1.50;;;21.40;52.90;;;;;;5026119;28;20036;-66
2022/07/15 09:49:13;;;;;;;17.58;2.67;;;21.40;52.70;;;;;;5026488;28;20493;-67
2022/07/15 09:51:56;;;;;;;22.13;2.97;;;21.60;53.30;;;;;;5026933;28;20036;-64
2022/07/15 09:54:23;;;;;;;19.42;2.72;;;21.70;53.70;;;;;;5027482;28;20520;-65
2022/07/15 09:56:48;;;;;;;25.13;3.28;;;21.60;53.50;;;;;;5025773;28;20041;-66
2022/07/15 09:59:15;;;;;;;18.75;2.15;;;21.70;54.00;;;;;;5026341;28;20038;-66
2022/07/15 10:01:40;;;;;;;14.60;1.95;;;21.70;53.60;;;;;;5026704;28;20425;-66
2022/07/15 10:04:06;;;;;;;12.02;1.98;;;21.70;53.50;;;;;;4999646;28;20037;-66
2022/07/15 10:06:32;;;;;;;6.78;1.73;;;21.70;53.30;;;;;;5025949;28;20460;-64
2022/07/15 10:08:58;;;;;;;9.95;2.17;;;21.60;51.10;;;;;;5026376;28;20053;-65
2022/07/15 10:11:24;;;;;;;5.00;1.45;;;21.60;53.30;;;;;;5026187;28;20089;-65
2022/07/15 10:13:53;;;;;;;10.25;1.88;;;21.60;53.40;;;;;;5026458;28;20025;-65
2022/07/15 10:16:30;;;;;;;8.48;2.17;;;21.60;53.30;;;;;;5026055;28;20402;-64
2022/07/15 10:19:10;;;;;;;9.07;2.03;;;21.50;51.70;;;;;;5025885;28;20032;-64
2022/07/15 10:22:01;;;;;;;8.20;2.08;;;21.40;53.80;;;;;;5008148;28;21750;-65
2022/07/15 10:25:02;;;;;;;4.60;2.17;;;21.50;53.80;;;;;;5028217;28;20045;-65
2022/07/15 10:27:52;;;;;;;5.85;1.40;;;21.60;53.90;;;;;;5022666;28;20503;-64
2022/07/15 10:30:21;;;;;;;4.55;1.85;;;21.60;53.10;;;;;;5023405;28;20598;-65
2022/07/15 10:33:10;;;;;;;6.13;1.50;;;21.60;54.00;;;;;;5026066;28;20121;-65
2022/07/15 10:35:36;;;;;;;8.13;1.67;;;21.60;53.90;;;;;;5026905;28;20088;-65
2022/07/15 10:38:24;;;;;;;11.70;6.88;;;21.60;55.00;;;;;;5026782;28;20448;-65
2022/07/15 10:41:38;;;;;;;660.05;363.23;;;21.70;54.70;;;;;;5025554;28;20113;-64
2022/07/15 10:44:09;;;;;;;960.13;563.10;;;21.70;54.00;;;;;;4927226;28;20042;-64
2022/07/15 10:46:34;;;;;;;972.88;605.13;;;21.60;52.70;;;;;;4963837;28;20788;-65
2022/07/15 10:49:00;;;;;;;738.20;447.58;;;21.60;53.60;;;;;;4989015;28;20452;-64
2022/07/15 10:51:34;;;;;;;622.55;366.52;;;21.60;54.30;;;;;;5024381;28;20017;-64
2022/07/15 10:54:00;;;;;;;608.53;355.63;;;21.50;53.50;;;;;;5024326;28;20049;-64
2022/07/15 10:56:30;;;;;;;613.63;364.50;;;21.60;54.00;;;;;;5006632;28;20052;-64
2022/07/15 10:59:11;;;;;;;580.95;344.58;;;21.60;54.10;;;;;;5023685;28;20167;-64
2022/07/15 11:01:37;;;;;;;546.15;317.52;;;21.60;53.90;;;;;;5023530;28;20464;-64
2022/07/15 11:04:20;;;;;;;511.15;308.95;;;21.70;53.90;;;;;;5025639;28;20116;-65
2022/07/15 11:09:47;;;;;;;325.42;178.23;;;21.70;54.00;;;;;;5025283;28;20048;-64
2022/07/15 11:12:22;;;;;;;325.85;183.98;;;21.70;54.00;;;;;;5025059;28;20018;-65
2022/07/15 11:14:52;;;;;;;213.38;116.45;;;21.70;54.00;;;;;;5025744;28;20095;-65
2022/07/15 11:17:29;;;;;;;187.32;99.72;;;21.60;51.40;;;;;;5025185;28;20041;-66
2022/07/15 11:19:56;;;;;;;173.18;90.90;;;21.40;53.30;;;;;;5025048;28;20109;-65
2022/07/15 11:22:22;;;;;;;143.95;77.00;;;21.30;53.60;;;;;;5025124;28;20702;-66
2022/07/15 11:24:48;;;;;;;83.47;43.97;;;21.40;53.30;;;;;;5025098;28;20061;-63
2022/07/15 11:27:14;;;;;;;114.60;63.08;;;21.40;52.70;;;;;;5025000;28;20119;-65
2022/07/15 11:29:48;;;;;;;104.57;59.42;;;21.50;53.80;;;;;;5025191;28;20083;-65
2022/07/15 11:32:14;;;;;;;141.52;79.35;;;21.50;53.90;;;;;;5025014;28;20025;-65
2022/07/15 11:34:42;;;;;;;109.07;61.90;;;21.50;51.80;;;;;;5024308;28;20034;-65
2022/07/15 11:37:09;;;;;;;138.77;81.35;;;21.40;52.70;;;;;;5024995;28;20029;-65
2022/07/15 11:39:34;;;;;;;132.07;74.10;;;21.40;54.50;;;;;;5025091;28;20747;-66
2022/07/15 11:44:48;;;;;;;74.60;41.38;;;21.50;53.70;;;;;;5024077;28;20060;-65
2022/07/15 11:47:14;;;;;;;34.70;18.23;;;21.50;54.50;;;;;;5024834;28;20413;-65
2022/07/15 11:49:43;;;;;;;37.20;20.30;;;21.50;51.10;;;;;;5024881;28;20052;-66
2022/07/15 11:52:10;;;;;;;20.63;12.05;;;21.50;54.30;;;;;;5024749;28;20108;-65
2022/07/15 11:54:39;;;;;;;20.30;11.68;;;21.50;53.10;;;;;;5025028;28;20029;-65
2022/07/15 11:57:06;;;;;;;22.85;14.38;;;21.50;54.30;;;;;;5024436;28;20033;-65
2022/07/15 11:59:32;;;;;;;16.13;7.85;;;21.60;54.10;;;;;;5025130;28;20033;-65
2022/07/15 12:02:08;;;;;;;9.75;4.80;;;21.60;54.40;;;;;;5024354;28;20033;-65
2022/07/15 12:04:34;;;;;;;10.60;4.22;;;21.60;54.00;;;;;;5028514;28;20041;-64
2022/07/15 12:06:59;;;;;;;11.80;4.22;;;21.60;54.00;;;;;;5028760;28;20031;-64
2022/07/15 12:09:25;;;;;;;6.40;2.78;;;21.60;53.80;;;;;;5028119;28;20037;-64
2022/07/15 12:11:51;;;;;;;9.07;3.13;;;21.60;53.80;;;;;;5026869;28;20108;-64
2022/07/15 12:14:21;;;;;;;9.32;3.13;;;21.60;54.00;;;;;;5028289;28;20036;-65
2022/07/15 12:16:49;;;;;;;11.80;3.95;;;21.50;53.80;;;;;;5028387;28;20033;-66
2022/07/15 12:19:17;;;;;;;20.70;5.60;;;21.60;52.60;;;;;;5027051;28;20057;-65
2022/07/15 12:21:43;;;;;;;30.27;6.75;;;21.60;54.20;;;;;;5026870;28;20117;-65
2022/07/15 12:24:10;;;;;;;25.38;6.35;;;21.60;54.20;;;;;;5027031;28;20037;-66
2022/07/15 12:26:38;;;;;;;20.45;4.65;;;21.50;53.50;;;;;;5009243;28;20025;-65
2022/07/15 12:29:04;;;;;;;16.48;3.72;;;21.50;52.50;;;;;;5027316;28;20029;-65
2022/07/15 12:31:32;;;;;;;17.48;3.83;;;21.60;53.90;;;;;;5026342;28;20578;-65
2022/07/15 12:33:58;;;;;;;14.45;2.92;;;21.50;52.70;;;;;;5027606;28;20309;-65
2022/07/15 12:36:26;;;;;;;10.07;2.33;;;21.50;52.00;;;;;;5026544;28;20456;-65
2022/07/15 12:39:03;;;;;;;8.00;2.47;;;21.50;52.90;;;;;;5027111;28;20014;-65
2022/07/15 12:41:28;;;;;;;5.53;2.13;;;21.50;53.30;;;;;;5027154;28;20025;-65
2022/07/15 12:43:57;;;;;;;7.20;2.67;;;21.50;53.40;;;;;;5027663;28;20060;-65
2022/07/15 12:46:52;;;;;;;8.15;2.05;;;21.50;53.10;;;;;;5027153;28;20033;-65
2022/07/15 12:49:45;;;;;;;13.13;2.42;;;21.50;53.20;;;;;;5008943;28;20021;-65
2022/07/15 12:52:15;;;;;;;9.15;2.65;;;21.50;53.30;;;;;;5026669;28;20029;-65
2022/07/15 12:54:41;;;;;;;12.50;3.13;;;21.40;50.80;;;;;;5025893;28;20051;-65
2022/07/15 12:57:17;;;;;;;11.32;2.60;;;21.30;51.90;;;;;;5027454;28;20025;-65
2022/07/15 12:59:50;;;;;;;9.27;2.42;;;21.40;52.10;;;;;;5009281;28;20638;-65
2022/07/15 13:02:15;;;;;;;5.53;2.10;;;21.50;52.30;;;;;;5026690;28;20029;-65
2022/07/15 13:04:41;;;;;;;7.75;2.50;;;21.40;49.90;;;;;;5027304;28;20563;-65
2022/07/15 13:07:06;;;;;;;10.85;2.42;;;21.30;52.60;;;;;;5027706;28;20030;-64
2022/07/15 13:09:32;;;;;;;15.50;2.92;;;21.40;52.80;;;;;;5027155;28;20021;-64
2022/07/15 13:11:59;;;;;;;7.35;2.97;;;21.50;53.60;;;;;;5027075;28;20049;-67